sensor_id;sensor_type;location;lat;lon;timestamp;temperature;humidity
56076;DHT22;41951;49.022;12.066;2023-04-16T00:00:21;7.80;99.90
56076;DHT22;41951;49.022;12.066;2023-04-16T00:02:47;7.70;99.90
56076;DHT22;41951;49.022;12.066;2023-04-16T00:05:13;7.70;99.90
56076;DHT22;41951;49.022;12.066;2023-04-16T00:07:39;7.70;99.90
56076;DHT22;41951;49.022;12.066;2023-04-16T00:10:06;7.80;99.90
56076;DHT22;41951;49.022;12.066;2023-04-16T00:12:31;7.70;99.90
56076;DHT22;41951;49.022;12.066;2023-04-16T00:14:57;7.70;99.90
56076;DHT22;41951;49.022;12.066;2023-04-16T00:17:23;7.70;99.90
56076;DHT22;41951;49.022;12.066;2023-04-16T00:19:49;7.70;99.90
56076;DHT22;41951;49.022;12.066;2023-04-16T00:22:14;7.70;99.90
56076;DHT22;41951;49.022;12.066;2023-04-16T00:24:40;7.70;99.90
56076;DHT22;41951;49.022;12.066;2023-04-16T00:27:06;7.70;99.90
56076;DHT22;41951;49.022;12.066;2023-04-16T00:29:32;7.70;99.90
56076;DHT22;41951;49.022;12.066;2023-04-16T00:31:59;7.80;99.90
56076;DHT22;41951;49.022;12.066;2023-04-16T00:34:24;7.80;99.90
56076;DHT22;41951;49.022;12.066;2023-04-16T00:36:50;7.80;99.90
56076;DHT22;41951;49.022;12.066;2023-04-16T00:39:15;7.80;99.90
56076;DHT22;41951;49.022;12.066;2023-04-16T00:41:42;7.70;99.90
56076;DHT22;41951;49.022;12.066;2023-04-16T00:44:08;7.70;99.90
56076;DHT22;41951;49.022;12.066;2023-04-16T00:46:34;7.70;99.90
56076;DHT22;41951;49.022;12.066;2023-04-16T00:49:02;7.60;99.90
56076;DHT22;41951;49.022;12.066;2023-04-16T00:51:28;7.70;99.90
56076;DHT22;41951;49.022;12.066;2023-04-16T00:53:53;7.70;99.90
56076;DHT22;41951;49.022;12.066;2023-04-16T00:56:19;7.70;99.90
56076;DHT22;41951;49.022;12.066;2023-04-16T00:58:46;7.60;99.90
56076;DHT22;41951;49.022;12.066;2023-04-16T01:01:12;7.70;99.90
56076;DHT22;41951;49.022;12.066;2023-04-16T01:03:42;7.60;99.90
56076;DHT22;41951;49.022;12.066;2023-04-16T01:06:08;7.60;99.90
56076;DHT22;41951;49.022;12.066;2023-04-16T01:08:34;7.60;99.90
56076;DHT22;41951;49.022;12.066;2023-04-16T01:11:00;7.60;99.90
56076;DHT22;41951;49.022;12.066;2023-04-16T01:13:25;7.60;99.90
56076;DHT22;41951;49.022;12.066;2023-04-16T01:15:51;7.70;99.90
56076;DHT22;41951;49.022;12.066;2023-04-16T01:18:18;7.70;99.90
56076;DHT22;41951;49.022;12.066;2023-04-16T01:20:46;7.70;99.90
56076;DHT22;41951;49.022;12.066;2023-04-16T01:23:11;7.70;99.90
56076;DHT22;41951;49.022;12.066;2023-04-16T01:25:37;7.70;99.90
56076;DHT22;41951;49.022;12.066;2023-04-16T01:28:03;7.70;99.90
56076;DHT22;41951;49.022;12.066;2023-04-16T01:30:29;7.70;99.90
56076;DHT22;41951;49.022;12.066;2023-04-16T01:32:56;7.70;99.90
56076;DHT22;41951;49.022;12.066;2023-04-16T01:35:22;7.70;99.90
56076;DHT22;41951;49.022;12.066;2023-04-16T01:37:49;7.70;99.90
56076;DHT22;41951;49.022;12.066;2023-04-16T01:40:15;7.70;99.90
56076;DHT22;41951;49.022;12.066;2023-04-16T01:42:40;7.70;99.90
56076;DHT22;41951;49.022;12.066;2023-04-16T01:45:06;7.70;99.90
56076;DHT22;41951;49.022;12.066;2023-04-16T01:47:32;7.70;99.90
56076;DHT22;41951;49.022;12.066;2023-04-16T01:49:58;7.70;99.90
56076;DHT22;41951;49.022;12.066;2023-04-16T01:52:24;7.70;99.90
56076;DHT22;41951;49.022;12.066;2023-04-16T01:54:50;7.70;99.90
56076;DHT22;41951;49.022;12.066;2023-04-16T01:57:15;7.70;99.90
56076;DHT22;41951;49.022;12.066;2023-04-16T01:59:41;7.70;99.90
56076;DHT22;41951;49.022;12.066;2023-04-16T02:02:09;7.60;99.90
56076;DHT22;41951;49.022;12.066;2023-04-16T02:04:42;7.60;99.90
56076;DHT22;41951;49.022;12.066;2023-04-16T02:07:08;7.60;99.90
56076;DHT22;41951;49.022;12.066;2023-04-16T02:09:35;7.60;99.90
56076;DHT22;41951;49.022;12.066;2023-04-16T02:12:01;7.60;99.90
56076;DHT22;41951;49.022;12.066;2023-04-16T02:14:30;7.60;99.90
56076;DHT22;41951;49.022;12.066;2023-04-16T02:16:56;7.60;99.90
56076;DHT22;41951;49.022;12.066;2023-04-16T02:19:22;7.60;99.90
56076;DHT22;41951;49.022;12.066;2023-04-16T02:21:50;7.60;99.90
56076;DHT22;41951;49.022;12.066;2023-04-16T02:24:15;7.50;99.90
56076;DHT22;41951;49.022;12.066;2023-04-16T02:26:41;7.50;99.90
56076;DHT22;41951;49.022;12.066;2023-04-16T02:29:06;7.50;99.90
56076;DHT22;41951;49.022;12.066;2023-04-16T02:31:32;7.50;99.90
56076;DHT22;41951;49.022;12.066;2023-04-16T02:33:57;7.50;99.90
56076;DHT22;41951;49.022;12.066;2023-04-16T02:36:23;7.50;99.90
56076;DHT22;41951;49.022;12.066;2023-04-16T02:38:49;7.50;99.90
56076;DHT22;41951;49.022;12.066;2023-04-16T02:41:14;7.50;99.90
56076;DHT22;41951;49.022;12.066;2023-04-16T02:43:40;7.60;99.90
56076;DHT22;41951;49.022;12.066;2023-04-16T02:46:05;7.60;99.90
56076;DHT22;41951;49.022;12.066;2023-04-16T02:48:31;7.60;99.90
56076;DHT22;41951;49.022;12.066;2023-04-16T02:50:57;7.60;99.90
56076;DHT22;41951;49.022;12.066;2023-04-16T02:53:22;7.60;99.90
56076;DHT22;41951;49.022;12.066;2023-04-16T02:55:51;7.70;99.90
56076;DHT22;41951;49.022;12.066;2023-04-16T02:58:18;7.70;99.90
56076;DHT22;41951;49.022;12.066;2023-04-16T03:00:43;7.60;99.90
56076;DHT22;41951;49.022;12.066;2023-04-16T03:03:09;7.70;99.90
56076;DHT22;41951;49.022;12.066;2023-04-16T03:05:34;7.60;99.90
56076;DHT22;41951;49.022;12.066;2023-04-16T03:08:00;7.70;99.90
56076;DHT22;41951;49.022;12.066;2023-04-16T03:10:26;7.60;99.90
56076;DHT22;41951;49.022;12.066;2023-04-16T03:12:51;7.60;99.90
56076;DHT22;41951;49.022;12.066;2023-04-16T03:15:17;7.60;99.90
56076;DHT22;41951;49.022;12.066;2023-04-16T03:17:42;7.60;99.90
56076;DHT22;41951;49.022;12.066;2023-04-16T03:20:08;7.60;99.90
56076;DHT22;41951;49.022;12.066;2023-04-16T03:22:34;7.60;99.90
56076;DHT22;41951;49.022;12.066;2023-04-16T03:25:00;7.60;99.90
56076;DHT22;41951;49.022;12.066;2023-04-16T03:27:25;7.60;99.90
56076;DHT22;41951;49.022;12.066;2023-04-16T03:29:51;7.60;99.90
56076;DHT22;41951;49.022;12.066;2023-04-16T03:32:17;7.60;99.90
56076;DHT22;41951;49.022;12.066;2023-04-16T03:34:43;7.50;99.90
56076;DHT22;41951;49.022;12.066;2023-04-16T03:37:08;7.50;99.90
56076;DHT22;41951;49.022;12.066;2023-04-16T03:39:36;7.50;99.90
56076;DHT22;41951;49.022;12.066;2023-04-16T03:42:02;7.50;99.90
56076;DHT22;41951;49.022;12.066;2023-04-16T03:44:28;7.50;99.90
56076;DHT22;41951;49.022;12.066;2023-04-16T03:46:54;7.50;99.90
56076;DHT22;41951;49.022;12.066;2023-04-16T03:49:20;7.40;99.90
56076;DHT22;41951;49.022;12.066;2023-04-16T03:51:45;7.50;99.90
56076;DHT22;41951;49.022;12.066;2023-04-16T03:54:11;7.40;99.90
56076;DHT22;41951;49.022;12.066;2023-04-16T03:56:39;7.50;99.90
56076;DHT22;41951;49.022;12.066;2023-04-16T03:59:05;7.50;99.90
56076;DHT22;41951;49.022;12.066;2023-04-16T04:01:30;7.50;99.90
56076;DHT22;41951;49.022;12.066;2023-04-16T04:03:56;7.40;99.90
56076;DHT22;41951;49.022;12.066;2023-04-16T04:06:21;7.40;99.90
56076;DHT22;41951;49.022;12.066;2023-04-16T04:08:47;7.40;99.90
56076;DHT22;41951;49.022;12.066;2023-04-16T04:11:13;7.40;99.90
56076;DHT22;41951;49.022;12.066;2023-04-16T04:13:38;7.40;99.90
56076;DHT22;41951;49.022;12.066;2023-04-16T04:16:04;7.30;99.90
56076;DHT22;41951;49.022;12.066;2023-04-16T04:18:30;7.40;99.90
56076;DHT22;41951;49.022;12.066;2023-04-16T04:20:56;7.30;99.90
56076;DHT22;41951;49.022;12.066;2023-04-16T04:23:22;7.30;99.90
56076;DHT22;41951;49.022;12.066;2023-04-16T04:25:48;7.30;99.90
56076;DHT22;41951;49.022;12.066;2023-04-16T04:28:13;7.30;99.90
56076;DHT22;41951;49.022;12.066;2023-04-16T04:30:40;7.30;99.90
56076;DHT22;41951;49.022;12.066;2023-04-16T04:33:05;7.40;99.90
56076;DHT22;41951;49.022;12.066;2023-04-16T04:35:31;7.40;99.90
56076;DHT22;41951;49.022;12.066;2023-04-16T04:37:57;7.40;99.90
56076;DHT22;41951;49.022;12.066;2023-04-16T04:40:23;7.50;99.90
56076;DHT22;41951;49.022;12.066;2023-04-16T04:42:48;7.50;99.90
56076;DHT22;41951;49.022;12.066;2023-04-16T04:45:14;7.60;99.90
56076;DHT22;41951;49.022;12.066;2023-04-16T04:47:40;7.70;99.90
56076;DHT22;41951;49.022;12.066;2023-04-16T04:50:05;7.60;99.90
56076;DHT22;41951;49.022;12.066;2023-04-16T04:52:31;7.60;99.90
56076;DHT22;41951;49.022;12.066;2023-04-16T04:54:57;7.70;99.90
56076;DHT22;41951;49.022;12.066;2023-04-16T04:57:22;7.70;99.90
56076;DHT22;41951;49.022;12.066;2023-04-16T04:59:48;7.70;99.90
56076;DHT22;41951;49.022;12.066;2023-04-16T05:02:13;7.70;99.90
56076;DHT22;41951;49.022;12.066;2023-04-16T05:04:39;7.80;99.90
56076;DHT22;41951;49.022;12.066;2023-04-16T05:07:05;7.80;99.90
56076;DHT22;41951;49.022;12.066;2023-04-16T05:09:31;7.80;99.90
56076;DHT22;41951;49.022;12.066;2023-04-16T05:11:57;7.80;99.90
56076;DHT22;41951;49.022;12.066;2023-04-16T05:14:23;7.90;99.90
56076;DHT22;41951;49.022;12.066;2023-04-16T05:16:48;7.90;99.90
56076;DHT22;41951;49.022;12.066;2023-04-16T05:19:16;8.00;99.90
56076;DHT22;41951;49.022;12.066;2023-04-16T05:21:41;8.00;99.90
56076;DHT22;41951;49.022;12.066;2023-04-16T05:24:07;8.00;99.90
56076;DHT22;41951;49.022;12.066;2023-04-16T05:26:32;8.10;99.90
56076;DHT22;41951;49.022;12.066;2023-04-16T05:28:58;8.00;99.90
56076;DHT22;41951;49.022;12.066;2023-04-16T05:31:24;8.00;99.90
56076;DHT22;41951;49.022;12.066;2023-04-16T05:33:49;8.00;99.90
56076;DHT22;41951;49.022;12.066;2023-04-16T05:36:15;8.00;99.90
56076;DHT22;41951;49.022;12.066;2023-04-16T05:38:40;8.10;99.90
56076;DHT22;41951;49.022;12.066;2023-04-16T05:41:06;8.10;99.90
56076;DHT22;41951;49.022;12.066;2023-04-16T05:43:31;8.20;99.90
56076;DHT22;41951;49.022;12.066;2023-04-16T05:45:57;8.20;99.90
56076;DHT22;41951;49.022;12.066;2023-04-16T05:48:23;8.20;99.90
56076;DHT22;41951;49.022;12.066;2023-04-16T05:50:48;8.30;99.90
56076;DHT22;41951;49.022;12.066;2023-04-16T05:53:15;8.40;99.90
56076;DHT22;41951;49.022;12.066;2023-04-16T05:55:43;8.40;99.90
56076;DHT22;41951;49.022;12.066;2023-04-16T05:58:08;8.40;99.90
56076;DHT22;41951;49.022;12.066;2023-04-16T06:00:34;8.40;99.90
56076;DHT22;41951;49.022;12.066;2023-04-16T06:03:01;8.50;99.90
56076;DHT22;41951;49.022;12.066;2023-04-16T06:05:27;8.50;99.90
56076;DHT22;41951;49.022;12.066;2023-04-16T06:07:53;8.60;99.90
56076;DHT22;41951;49.022;12.066;2023-04-16T06:10:18;8.70;99.90
56076;DHT22;41951;49.022;12.066;2023-04-16T06:12:44;8.80;99.90
56076;DHT22;41951;49.022;12.066;2023-04-16T06:15:10;8.80;99.90
56076;DHT22;41951;49.022;12.066;2023-04-16T06:17:35;8.80;99.90
56076;DHT22;41951;49.022;12.066;2023-04-16T06:20:01;8.90;99.90
56076;DHT22;41951;49.022;12.066;2023-04-16T06:22:27;8.90;99.90
56076;DHT22;41951;49.022;12.066;2023-04-16T06:24:52;9.00;99.90
56076;DHT22;41951;49.022;12.066;2023-04-16T06:27:18;9.00;99.90
56076;DHT22;41951;49.022;12.066;2023-04-16T06:29:43;9.00;99.90
56076;DHT22;41951;49.022;12.066;2023-04-16T06:32:09;9.00;99.90
56076;DHT22;41951;49.022;12.066;2023-04-16T06:34:36;9.00;99.90
56076;DHT22;41951;49.022;12.066;2023-04-16T06:37:02;9.00;99.90
56076;DHT22;41951;49.022;12.066;2023-04-16T06:39:28;9.10;99.90
56076;DHT22;41951;49.022;12.066;2023-04-16T06:41:57;9.10;99.90
56076;DHT22;41951;49.022;12.066;2023-04-16T06:44:22;9.10;99.90
56076;DHT22;41951;49.022;12.066;2023-04-16T06:46:49;9.10;99.90
56076;DHT22;41951;49.022;12.066;2023-04-16T06:49:15;10.50;99.90
56076;DHT22;41951;49.022;12.066;2023-04-16T06:51:41;9.10;99.90
56076;DHT22;41951;49.022;12.066;2023-04-16T06:54:06;9.10;99.90
56076;DHT22;41951;49.022;12.066;2023-04-16T06:56:32;9.10;99.90
56076;DHT22;41951;49.022;12.066;2023-04-16T06:58:57;9.20;99.90
56076;DHT22;41951;49.022;12.066;2023-04-16T07:01:25;9.20;99.90
56076;DHT22;41951;49.022;12.066;2023-04-16T07:03:51;9.30;99.90
56076;DHT22;41951;49.022;12.066;2023-04-16T07:06:16;9.40;99.90
56076;DHT22;41951;49.022;12.066;2023-04-16T07:08:42;9.60;99.90
56076;DHT22;41951;49.022;12.066;2023-04-16T07:11:07;9.70;99.90
56076;DHT22;41951;49.022;12.066;2023-04-16T07:13:33;9.70;99.90
56076;DHT22;41951;49.022;12.066;2023-04-16T07:15:59;9.80;99.90
56076;DHT22;41951;49.022;12.066;2023-04-16T07:18:24;9.80;99.90
56076;DHT22;41951;49.022;12.066;2023-04-16T07:20:50;9.80;99.90
56076;DHT22;41951;49.022;12.066;2023-04-16T07:23:16;9.80;99.90
56076;DHT22;41951;49.022;12.066;2023-04-16T07:25:41;9.90;99.90
56076;DHT22;41951;49.022;12.066;2023-04-16T07:28:07;9.80;99.90
56076;DHT22;41951;49.022;12.066;2023-04-16T07:30:33;9.90;99.90
56076;DHT22;41951;49.022;12.066;2023-04-16T07:33:02;9.90;99.90
56076;DHT22;41951;49.022;12.066;2023-04-16T07:35:29;9.90;99.90
56076;DHT22;41951;49.022;12.066;2023-04-16T07:37:55;9.90;99.90
56076;DHT22;41951;49.022;12.066;2023-04-16T07:40:22;9.90;99.90
56076;DHT22;41951;49.022;12.066;2023-04-16T07:42:48;9.90;99.90
56076;DHT22;41951;49.022;12.066;2023-04-16T07:45:13;9.80;99.90
56076;DHT22;41951;49.022;12.066;2023-04-16T07:47:39;9.80;99.90
56076;DHT22;41951;49.022;12.066;2023-04-16T07:50:05;9.80;99.90
56076;DHT22;41951;49.022;12.066;2023-04-16T07:52:31;9.80;99.90
56076;DHT22;41951;49.022;12.066;2023-04-16T07:54:56;9.70;99.90
56076;DHT22;41951;49.022;12.066;2023-04-16T07:57:22;9.70;99.90
56076;DHT22;41951;49.022;12.066;2023-04-16T07:59:48;9.60;99.90
56076;DHT22;41951;49.022;12.066;2023-04-16T08:02:14;9.60;99.90
56076;DHT22;41951;49.022;12.066;2023-04-16T08:04:41;9.60;99.90
56076;DHT22;41951;49.022;12.066;2023-04-16T08:07:07;9.60;99.90
56076;DHT22;41951;49.022;12.066;2023-04-16T08:09:33;9.60;99.90
56076;DHT22;41951;49.022;12.066;2023-04-16T08:12:00;9.60;99.90
56076;DHT22;41951;49.022;12.066;2023-04-16T08:14:27;9.60;99.90
56076;DHT22;41951;49.022;12.066;2023-04-16T08:16:52;9.60;99.90
56076;DHT22;41951;49.022;12.066;2023-04-16T08:19:18;9.70;99.90
56076;DHT22;41951;49.022;12.066;2023-04-16T08:21:43;9.70;99.90
56076;DHT22;41951;49.022;12.066;2023-04-16T08:24:09;9.60;99.90
56076;DHT22;41951;49.022;12.066;2023-04-16T08:26:35;9.70;99.90
56076;DHT22;41951;49.022;12.066;2023-04-16T08:29:00;9.70;99.90
56076;DHT22;41951;49.022;12.066;2023-04-16T08:31:26;9.70;99.90
56076;DHT22;41951;49.022;12.066;2023-04-16T08:33:52;9.80;99.90
56076;DHT22;41951;49.022;12.066;2023-04-16T08:36:17;9.80;99.90
56076;DHT22;41951;49.022;12.066;2023-04-16T08:38:43;9.90;99.90
56076;DHT22;41951;49.022;12.066;2023-04-16T08:41:11;9.90;99.90
56076;DHT22;41951;49.022;12.066;2023-04-16T08:43:38;9.90;99.90
56076;DHT22;41951;49.022;12.066;2023-04-16T08:46:06;9.90;99.90
56076;DHT22;41951;49.022;12.066;2023-04-16T08:48:34;9.90;99.90
56076;DHT22;41951;49.022;12.066;2023-04-16T08:51:01;9.90;99.90
56076;DHT22;41951;49.022;12.066;2023-04-16T08:53:47;9.90;99.90
56076;DHT22;41951;49.022;12.066;2023-04-16T08:56:13;9.90;99.90
56076;DHT22;41951;49.022;12.066;2023-04-16T08:58:40;9.90;99.90
56076;DHT22;41951;49.022;12.066;2023-04-16T09:01:08;10.00;99.90
56076;DHT22;41951;49.022;12.066;2023-04-16T09:03:35;10.00;99.90
56076;DHT22;41951;49.022;12.066;2023-04-16T09:06:01;9.90;99.90
56076;DHT22;41951;49.022;12.066;2023-04-16T09:08:28;9.80;99.90
56076;DHT22;41951;49.022;12.066;2023-04-16T09:10:58;9.80;99.90
56076;DHT22;41951;49.022;12.066;2023-04-16T09:13:24;10.00;99.90
56076;DHT22;41951;49.022;12.066;2023-04-16T09:15:53;10.10;99.90
56076;DHT22;41951;49.022;12.066;2023-04-16T09:18:19;10.20;99.90
56076;DHT22;41951;49.022;12.066;2023-04-16T09:20:47;10.30;99.90
56076;DHT22;41951;49.022;12.066;2023-04-16T09:23:13;10.30;99.90
56076;DHT22;41951;49.022;12.066;2023-04-16T09:25:38;10.30;99.90
56076;DHT22;41951;49.022;12.066;2023-04-16T09:28:04;10.40;99.90
56076;DHT22;41951;49.022;12.066;2023-04-16T09:30:30;10.40;99.90
56076;DHT22;41951;49.022;12.066;2023-04-16T09:33:17;10.50;99.90
56076;DHT22;41951;49.022;12.066;2023-04-16T09:35:52;10.50;99.90
56076;DHT22;41951;49.022;12.066;2023-04-16T09:38:19;10.60;99.90
56076;DHT22;41951;49.022;12.066;2023-04-16T09:40:45;10.70;99.90
56076;DHT22;41951;49.022;12.066;2023-04-16T09:43:15;10.80;99.90
56076;DHT22;41951;49.022;12.066;2023-04-16T09:45:59;10.80;99.90
56076;DHT22;41951;49.022;12.066;2023-04-16T09:48:31;10.90;99.90
56076;DHT22;41951;49.022;12.066;2023-04-16T09:50:58;11.00;99.90
56076;DHT22;41951;49.022;12.066;2023-04-16T09:53:25;11.00;99.90
56076;DHT22;41951;49.022;12.066;2023-04-16T09:56:02;11.00;99.90
56076;DHT22;41951;49.022;12.066;2023-04-16T09:58:28;11.00;99.90
56076;DHT22;41951;49.022;12.066;2023-04-16T10:01:10;11.10;99.90
56076;DHT22;41951;49.022;12.066;2023-04-16T10:03:38;11.00;99.90
56076;DHT22;41951;49.022;12.066;2023-04-16T10:06:13;10.90;99.90
56076;DHT22;41951;49.022;12.066;2023-04-16T10:08:46;10.80;99.90
56076;DHT22;41951;49.022;12.066;2023-04-16T10:11:13;10.80;99.90
56076;DHT22;41951;49.022;12.066;2023-04-16T10:13:38;10.90;99.90
56076;DHT22;41951;49.022;12.066;2023-04-16T10:16:05;10.90;99.90
56076;DHT22;41951;49.022;12.066;2023-04-16T10:18:31;10.90;99.90
56076;DHT22;41951;49.022;12.066;2023-04-16T10:20:58;10.80;99.90
56076;DHT22;41951;49.022;12.066;2023-04-16T10:23:23;10.80;99.90
56076;DHT22;41951;49.022;12.066;2023-04-16T10:25:49;10.70;99.90
56076;DHT22;41951;49.022;12.066;2023-04-16T10:28:16;10.80;99.90
56076;DHT22;41951;49.022;12.066;2023-04-16T10:30:46;10.70;99.90
56076;DHT22;41951;49.022;12.066;2023-04-16T10:33:23;10.70;99.90
56076;DHT22;41951;49.022;12.066;2023-04-16T10:35:51;10.70;99.90
56076;DHT22;41951;49.022;12.066;2023-04-16T10:40:46;10.90;99.90
56076;DHT22;41951;49.022;12.066;2023-04-16T10:43:16;10.90;99.90
56076;DHT22;41951;49.022;12.066;2023-04-16T10:45:43;11.00;99.90
56076;DHT22;41951;49.022;12.066;2023-04-16T10:48:08;11.00;99.90
56076;DHT22;41951;49.022;12.066;2023-04-16T10:50:35;11.10;99.90
56076;DHT22;41951;49.022;12.066;2023-04-16T10:53:22;11.00;99.90
56076;DHT22;41951;49.022;12.066;2023-04-16T10:55:56;11.00;99.90
56076;DHT22;41951;49.022;12.066;2023-04-16T10:58:33;11.10;99.90
56076;DHT22;41951;49.022;12.066;2023-04-16T11:01:00;11.10;99.90
56076;DHT22;41951;49.022;12.066;2023-04-16T11:03:30;11.20;99.90
56076;DHT22;41951;49.022;12.066;2023-04-16T11:06:15;11.20;99.90
56076;DHT22;41951;49.022;12.066;2023-04-16T11:08:43;11.20;99.90
56076;DHT22;41951;49.022;12.066;2023-04-16T11:11:10;11.30;99.90
56076;DHT22;41951;49.022;12.066;2023-04-16T11:13:36;11.40;99.90
56076;DHT22;41951;49.022;12.066;2023-04-16T11:16:03;11.40;99.90
56076;DHT22;41951;49.022;12.066;2023-04-16T11:18:29;11.30;99.90
56076;DHT22;41951;49.022;12.066;2023-04-16T11:20:55;11.50;99.90
56076;DHT22;41951;49.022;12.066;2023-04-16T11:23:21;11.70;99.90
56076;DHT22;41951;49.022;12.066;2023-04-16T11:25:47;11.80;99.90
56076;DHT22;41951;49.022;12.066;2023-04-16T11:28:12;11.90;99.90
56076;DHT22;41951;49.022;12.066;2023-04-16T11:30:38;12.00;99.90
56076;DHT22;41951;49.022;12.066;2023-04-16T11:33:07;11.90;99.90
56076;DHT22;41951;49.022;12.066;2023-04-16T11:35:33;12.00;99.90
56076;DHT22;41951;49.022;12.066;2023-04-16T11:37:59;12.00;99.90
56076;DHT22;41951;49.022;12.066;2023-04-16T11:40:28;12.00;99.90
56076;DHT22;41951;49.022;12.066;2023-04-16T11:42:55;12.10;99.90
56076;DHT22;41951;49.022;12.066;2023-04-16T11:45:20;12.10;99.90
56076;DHT22;41951;49.022;12.066;2023-04-16T11:47:51;12.30;99.90
56076;DHT22;41951;49.022;12.066;2023-04-16T11:50:27;12.30;99.90
56076;DHT22;41951;49.022;12.066;2023-04-16T11:52:54;12.30;99.90
56076;DHT22;41951;49.022;12.066;2023-04-16T11:55:20;12.50;99.90
56076;DHT22;41951;49.022;12.066;2023-04-16T11:57:46;12.80;99.90
56076;DHT22;41951;49.022;12.066;2023-04-16T12:00:13;13.10;99.90
56076;DHT22;41951;49.022;12.066;2023-04-16T12:02:41;13.30;99.90
56076;DHT22;41951;49.022;12.066;2023-04-16T12:07:54;13.70;99.90
56076;DHT22;41951;49.022;12.066;2023-04-16T12:10:20;13.90;99.90
56076;DHT22;41951;49.022;12.066;2023-04-16T12:12:46;13.80;99.90
56076;DHT22;41951;49.022;12.066;2023-04-16T12:15:11;13.70;99.90
56076;DHT22;41951;49.022;12.066;2023-04-16T12:17:37;13.60;99.90
56076;DHT22;41951;49.022;12.066;2023-04-16T12:20:11;13.50;99.90
56076;DHT22;41951;49.022;12.066;2023-04-16T12:22:44;13.30;99.90
56076;DHT22;41951;49.022;12.066;2023-04-16T12:25:15;13.10;99.90
56076;DHT22;41951;49.022;12.066;2023-04-16T12:27:51;12.90;99.90
56076;DHT22;41951;49.022;12.066;2023-04-16T12:30:21;12.70;99.90
56076;DHT22;41951;49.022;12.066;2023-04-16T12:32:49;12.70;99.90
56076;DHT22;41951;49.022;12.066;2023-04-16T12:35:32;12.60;99.90
56076;DHT22;41951;49.022;12.066;2023-04-16T12:37:59;12.60;99.90
56076;DHT22;41951;49.022;12.066;2023-04-16T12:40:25;12.60;99.90
56076;DHT22;41951;49.022;12.066;2023-04-16T12:42:51;12.60;99.90
56076;DHT22;41951;49.022;12.066;2023-04-16T12:45:16;12.50;99.90
56076;DHT22;41951;49.022;12.066;2023-04-16T12:47:42;12.50;99.90
56076;DHT22;41951;49.022;12.066;2023-04-16T12:50:08;12.40;99.90
56076;DHT22;41951;49.022;12.066;2023-04-16T12:52:34;12.40;99.90
56076;DHT22;41951;49.022;12.066;2023-04-16T12:55:03;12.50;99.90
56076;DHT22;41951;49.022;12.066;2023-04-16T12:57:29;12.50;99.90
56076;DHT22;41951;49.022;12.066;2023-04-16T12:59:55;12.40;99.90
56076;DHT22;41951;49.022;12.066;2023-04-16T13:02:21;12.40;99.90
56076;DHT22;41951;49.022;12.066;2023-04-16T13:04:48;12.30;99.90
56076;DHT22;41951;49.022;12.066;2023-04-16T13:07:14;12.10;99.90
56076;DHT22;41951;49.022;12.066;2023-04-16T13:09:39;12.10;99.90
56076;DHT22;41951;49.022;12.066;2023-04-16T13:12:05;12.00;99.90
56076;DHT22;41951;49.022;12.066;2023-04-16T13:14:31;12.00;99.90
56076;DHT22;41951;49.022;12.066;2023-04-16T13:16:57;12.00;99.90
56076;DHT22;41951;49.022;12.066;2023-04-16T13:19:22;12.00;99.90
56076;DHT22;41951;49.022;12.066;2023-04-16T13:24:13;11.90;99.90
56076;DHT22;41951;49.022;12.066;2023-04-16T13:26:39;11.90;99.90
56076;DHT22;41951;49.022;12.066;2023-04-16T13:29:04;11.90;99.90
56076;DHT22;41951;49.022;12.066;2023-04-16T13:31:30;11.80;99.90
56076;DHT22;41951;49.022;12.066;2023-04-16T13:33:56;11.80;99.90
56076;DHT22;41951;49.022;12.066;2023-04-16T13:36:21;11.80;99.90
56076;DHT22;41951;49.022;12.066;2023-04-16T13:38:47;11.80;99.90
56076;DHT22;41951;49.022;12.066;2023-04-16T13:41:12;11.90;99.90
56076;DHT22;41951;49.022;12.066;2023-04-16T13:43:38;12.20;99.90
56076;DHT22;41951;49.022;12.066;2023-04-16T13:46:03;12.50;99.90
56076;DHT22;41951;49.022;12.066;2023-04-16T13:48:29;12.90;99.90
56076;DHT22;41951;49.022;12.066;2023-04-16T13:50:55;13.20;99.90
56076;DHT22;41951;49.022;12.066;2023-04-16T13:53:20;13.40;99.90
56076;DHT22;41951;49.022;12.066;2023-04-16T13:55:46;13.50;99.90
56076;DHT22;41951;49.022;12.066;2023-04-16T13:58:14;13.70;99.90
56076;DHT22;41951;49.022;12.066;2023-04-16T14:00:40;13.80;99.90
56076;DHT22;41951;49.022;12.066;2023-04-16T14:03:06;13.70;99.90
56076;DHT22;41951;49.022;12.066;2023-04-16T14:05:32;13.70;99.90
56076;DHT22;41951;49.022;12.066;2023-04-16T14:07:57;13.80;99.90
56076;DHT22;41951;49.022;12.066;2023-04-16T14:10:23;13.90;99.90
56076;DHT22;41951;49.022;12.066;2023-04-16T14:12:48;14.30;99.90
56076;DHT22;41951;49.022;12.066;2023-04-16T14:15:14;14.50;99.90
56076;DHT22;41951;49.022;12.066;2023-04-16T14:17:43;14.80;99.90
56076;DHT22;41951;49.022;12.066;2023-04-16T14:20:10;14.90;99.90
56076;DHT22;41951;49.022;12.066;2023-04-16T14:22:36;15.00;99.90
56076;DHT22;41951;49.022;12.066;2023-04-16T14:25:02;14.80;99.90
56076;DHT22;41951;49.022;12.066;2023-04-16T14:27:28;14.80;99.90
56076;DHT22;41951;49.022;12.066;2023-04-16T14:29:54;14.70;99.90
56076;DHT22;41951;49.022;12.066;2023-04-16T14:32:20;14.60;99.90
56076;DHT22;41951;49.022;12.066;2023-04-16T14:34:46;14.80;99.90
56076;DHT22;41951;49.022;12.066;2023-04-16T14:37:11;15.00;99.90
56076;DHT22;41951;49.022;12.066;2023-04-16T14:39:37;15.00;99.90
56076;DHT22;41951;49.022;12.066;2023-04-16T14:42:04;15.00;99.90
56076;DHT22;41951;49.022;12.066;2023-04-16T14:44:31;15.00;99.90
56076;DHT22;41951;49.022;12.066;2023-04-16T14:46:56;14.90;99.90
56076;DHT22;41951;49.022;12.066;2023-04-16T14:49:22;14.90;99.90
56076;DHT22;41951;49.022;12.066;2023-04-16T14:51:48;14.80;99.90
56076;DHT22;41951;49.022;12.066;2023-04-16T14:54:13;14.50;99.90
56076;DHT22;41951;49.022;12.066;2023-04-16T14:56:39;14.20;99.90
56076;DHT22;41951;49.022;12.066;2023-04-16T14:59:05;14.00;99.90
56076;DHT22;41951;49.022;12.066;2023-04-16T15:01:31;13.80;99.90
56076;DHT22;41951;49.022;12.066;2023-04-16T15:03:58;13.60;99.90
56076;DHT22;41951;49.022;12.066;2023-04-16T15:06:24;13.10;99.90
56076;DHT22;41951;49.022;12.066;2023-04-16T15:08:49;12.70;99.90
56076;DHT22;41951;49.022;12.066;2023-04-16T15:11:15;12.50;99.90
56076;DHT22;41951;49.022;12.066;2023-04-16T15:13:40;12.40;99.90
56076;DHT22;41951;49.022;12.066;2023-04-16T15:16:06;12.20;99.90
56076;DHT22;41951;49.022;12.066;2023-04-16T15:18:32;12.20;99.90
56076;DHT22;41951;49.022;12.066;2023-04-16T15:20:58;12.00;99.90
56076;DHT22;41951;49.022;12.066;2023-04-16T15:23:23;12.00;99.90
56076;DHT22;41951;49.022;12.066;2023-04-16T15:25:49;11.90;99.90
56076;DHT22;41951;49.022;12.066;2023-04-16T15:28:14;11.90;99.90